Latest Coastal Weather Observations for Williamtown

IDN60701

Issued at 11:42 pm EDT Monday 2 March 2015 (issued every 10 minutes, with the page automatically refreshed every 10 minutes)

About coastal observations | Map of coastal stations | Coastal observations for NSW | Marine services | Other Formats
Station Details ID: 061078 Name: WILLIAMTOWN RAAF Lat: -32.79 Lon: 151.84 Height: 9.0 m
Data from the previous 72 hours. | See also: Recent months at Williamtown
Date/Time
EDT
Temp

°C
Wind Pressure Rain
since 9am
mm
Weather Cloud Vis
km
Sea
Height
m
Swell
Dir
 
Speed
knots
Gust
knots
hPa Trend Height
m
Period
s
Dir
02/11:30pm 15.8 CALM 0 0 1017.4 - 0.0 - Partly cloudy 10 - - - -
02/11:00pm 16.2 CALM 0 0 1017.7 - 0.0 - Partly cloudy 10 - - - -
02/10:30pm 16.1 CALM 0 0 1017.9 - 0.0 - - 10 - - - -
02/10:00pm 16.7 CALM 0 0 1018.0 - 0.0 - Partly cloudy 10 - - - -
02/09:00pm 18.2 CALM 0 0 1018.0 - 0.0 - - 10 - - - -
02/08:30pm 19.5 E 4 5 1017.9 - 0.0 - Partly cloudy 10 - - - -
02/08:00pm 20.1 SE 5 6 1017.6 - 0.0 - Cloudy 10 - - - -
02/07:30pm 21.4 ESE 6 7 1017.3 - 0.0 - Cloudy 10 - - - -
02/07:00pm 22.3 ESE 7 8 1017.0 - 0.0 - Partly cloudy 10 - - - -
02/06:30pm 22.6 E 8 10 1016.8 - 0.0 - Mostly clear 10 - - - -
02/06:00pm 23.0 ESE 9 14 1016.6 - 0.0 - Cloudy 10 - - - -
02/05:30pm 23.1 ESE 10 13 1016.4 - 0.0 - Mostly clear 10 - - - -
02/05:00pm 23.6 ESE 10 14 1016.4 - 0.0 - Mostly cloudy 10 - - - -
02/04:30pm 23.3 ESE 11 15 1016.6 - 0.0 - Mostly cloudy 10 - - - -
02/04:00pm 23.6 SE 13 16 1016.6 - 0.0 - Mostly cloudy 10 - - - -
02/03:30pm 23.9 ESE 11 15 1016.9 - 0.0 - Mostly cloudy 10 - - - -
02/03:00pm 23.7 SE 13 16 1017.2 R 0.0 Fine Cloudy 30 - - - -
02/02:30pm 23.7 SE 13 15 1017.6 - 0.0 - Mostly clear 10 - - - -
02/02:00pm 23.9 SE 15 18 1017.7 - 0.0 - Mostly clear 10 - - - -
02/01:30pm 23.8 S 12 17 1018.0 - 0.0 - Mostly clear 10 - - - -
02/01:00pm 24.1 S 13 18 1018.3 - 0.0 - Mostly clear 10 - - - -
02/12:30pm 23.8 S 14 17 1018.5 - 0.0 - Mostly clear 10 - - - -
02/12:00pm 23.0 SSW 13 17 1018.6 R 0.0 Fine Mostly cloudy 20 - - - -
02/11:30am 22.5 S 12 16 1018.7 - 0.0 - Cloudy 10 - - - -
02/11:00am 21.6 SSW 10 14 1018.9 - 0.0 - Mostly clear 10 - - - -
02/10:30am 21.1 SSW 9 14 1018.8 - 0.0 - Partly cloudy 10 - - - -
02/10:00am 20.6 SSW 11 15 1018.5 - 0.0 Showers Partly cloudy 10 - - - -
02/09:30am 21.5 SSW 14 20 1018.1 - 0.0 - Partly cloudy 10 - - - -
02/09:00am 21.8 S 13 18 1017.5 R 8.8 Distant precip. Mostly cloudy 20 - - - -
02/08:00am 22.0 S 8 10 1017.0 - 8.8 - Cloudy 10 - - - -
02/07:30am 22.0 S 9 11 1016.7 - 8.8 - Cloudy 10 - - - -
02/07:00am 21.8 S 8 10 1016.4 - 8.8 - Mostly clear 10 - - - -
02/06:30am 21.7 S 9 13 1016.4 - 8.8 - Cloudy 10 - - - -
02/06:00am 21.7 S 13 17 1015.7 F 8.8 Fine Mostly cloudy 30 - - - -
02/05:30am 21.9 S 12 16 1015.5 - 8.8 - Cloudy 10 - - - -
02/05:00am 21.5 S 15 20 1015.2 - 8.8 - Cloudy 10 - - - -
02/04:30am 21.3 S 10 14 1015.2 - 8.8 - Cloudy 10 - - - -
02/04:00am 20.8 S 10 16 1015.4 - 8.8 - Cloudy 10 - - - -
02/03:30am 20.6 S 12 16 1015.4 - 8.8 - Cloudy 10 - - - -
02/03:00am 20.4 S 13 19 1015.6 - 8.8 - Cloudy 10 - - - -
02/02:30am 20.8 S 14 25 1015.4 - 8.8 - Partly cloudy 10 - - - -
02/02:28am 21.0 S 15 25 1015.4 - 8.8 - Partly cloudy 10 - - - -
02/02:00am 21.2 S 16 22 1015.6 - 8.8 - Partly cloudy 10 - - - -
02/01:30am 21.6 SSE 18 24 1015.6 - 8.8 - Partly cloudy 10 - - - -
02/01:00am 21.4 S 18 26 1015.3 - 8.8 - Cloudy 10 - - - -
02/12:30am 22.0 S 21 29 1015.3 - 8.8 - Cloudy 10 - - - -
02/12:21am 21.9 S 17 27 1015.3 - 8.8 - Cloudy 10 - - - -
02/12:00am 21.8 S 19 28 1015.1 - 8.8 - Cloudy 10 - - - -
 
Date/Time
EDT
Temp

°C
Wind Pressure Rain
since 9am
mm
Weather Cloud Vis
km
Sea
Height
m
Swell
Dir
 
Speed
knots
Gust
knots
hPa Trend Height
m
Period
s
Dir
01/11:53pm 21.8 S 18 28 1015.1 - 8.8 - Cloudy 10 - - - -
01/11:30pm 21.8 S 16 22 1014.9 - 8.8 - Cloudy 10 - - - -
01/11:01pm 21.9 S 19 31 1014.6 - 8.8 - Cloudy 10 - - - -
01/11:00pm 21.9 S 19 28 1014.6 - 8.8 - Cloudy 10 - - - -
01/10:38pm 21.9 S 19 28 1014.2 - 8.8 - Cloudy 8 - - - -
01/10:30pm 21.9 S 18 28 1014.1 - 8.8 - Partly cloudy 7 - - - -
01/10:26pm 21.8 S 18 25 1014.1 - 8.8 - Partly cloudy 6 - - - -
01/10:23pm 21.7 S 18 25 1014.1 - 8.8 - Partly cloudy 7 - - - -
01/10:17pm 21.8 S 18 25 1014.0 - 8.6 - Partly cloudy 7 - - - -
01/10:10pm 21.8 S 19 25 1013.9 - 8.6 - Partly cloudy 6 - - - -
01/10:07pm 21.9 S 17 25 1013.7 - 8.6 - Partly cloudy 7 - - - -
01/10:03pm 22.1 S 15 25 1013.6 - 8.4 - Partly cloudy 9 - - - -
01/10:00pm 22.4 S 14 21 1013.4 - 8.4 - Partly cloudy 10 - - - -
01/09:30pm 22.4 S 8 11 1012.9 - 8.4 - Partly cloudy 10 - - - -
01/09:00pm 22.1 SSE 9 15 1011.9 - 8.4 - Partly cloudy 10 - - - -
01/08:30pm 22.3 SSE 11 13 1011.1 - 8.4 - Partly cloudy 9 - - - -
01/08:00pm 22.0 ESE 13 17 1009.6 - 8.2 - Partly cloudy 8 - - - -
01/07:57pm 22.0 ESE 14 18 1009.4 - 8.2 - Partly cloudy 7 - - - -
01/07:30pm 21.7 SSE 18 25 1009.4 - 7.0 - Partly cloudy 5 - - - -
01/07:24pm 21.7 SSE 19 25 1009.3 - 6.6 - Partly cloudy 4 - - - -
01/07:00pm 21.7 S 27 38 1008.6 - 1.8 - Partly cloudy 4 - - - -
01/06:51pm 21.9 S 24 34 1008.0 - 0.8 - Partly cloudy 4 - - - -
01/06:43pm 22.5 SSW 23 32 1007.6 - 0.0 - Partly cloudy 6 - - - -
01/06:30pm 25.8 SW 20 34 1006.3 - 0.0 - Partly cloudy 10 - - - -
01/06:28pm 26.4 SW 23 34 1005.8 - 0.0 - Partly cloudy 10 - - - -
01/06:27pm 26.8 SW 27 34 1005.5 - 0.0 - Partly cloudy 10 - - - -
01/06:00pm 30.6 ENE 7 10 1003.9 - 0.0 - Mostly clear 10 - - - -
01/05:30pm 31.2 ENE 8 12 1003.0 - 0.0 - - 10 - - - -
01/05:00pm 31.7 E 11 14 1003.0 - 0.0 - - 10 - - - -
01/04:30pm 32.4 NE 12 18 1003.1 - 0.0 - Partly cloudy 10 - - - -
01/04:00pm 33.2 NE 12 17 1003.4 - 0.0 - Partly cloudy 10 - - - -
01/03:30pm 36.7 WNW 8 16 1003.5 - 0.0 - Partly cloudy 10 - - - -
01/03:00pm 37.0 WNW 10 17 1003.8 F 0.0 Fine Mostly clear 40 - - - -
01/02:30pm 37.2 WNW 11 19 1004.4 - 0.0 - - 10 - - - -
01/02:00pm 36.5 NW 11 18 1005.0 - 0.0 - - 10 - - - -
01/01:30pm 35.3 NW 10 16 1005.5 - 0.0 - Mostly clear 10 - - - -
01/01:00pm 34.7 NNW 10 18 1005.9 - 0.0 - Mostly clear 10 - - - -
01/12:30pm 34.0 W 9 15 1006.3 - 0.0 - Mostly clear 10 - - - -
01/12:00pm 32.5 NW 6 11 1006.9 F 0.0 Fine Mostly clear 40 - - - -
01/11:30am 31.3 N 8 11 1007.2 - 0.0 - Mostly clear 10 - - - -
01/11:00am 29.9 N 7 10 1007.2 - 0.0 - - 10 - - - -
01/10:30am 28.3 NNW 6 8 1007.5 - 0.0 - - 10 - - - -
01/10:00am 27.0 NNW 7 9 1007.5 - 0.0 - - 10 - - - -
01/09:30am 26.4 NNW 7 10 1007.8 - 0.0 - - 10 - - - -
01/09:00am 25.0 NW 5 6 1007.6 S 0.0 Fine Mostly clear 40 - - - -
01/08:30am 23.4 NNW 6 8 1007.4 - 0.0 - Mostly clear 10 - - - -
01/08:00am 21.6 NNW 4 4 1007.4 - 0.0 - - 10 - - - -
01/07:30am 20.2 N 3 4 1007.2 - 0.0 - - 10 - - - -
01/07:00am 18.6 N 3 4 1006.9 - 0.0 Fog patches Mostly clear 10 - - - -
01/06:53am 19.0 N 4 5 1006.8 - 0.0 Fog patches Mostly clear 10 - - - -
01/06:35am 18.9 NW 6 8 1006.8 - 0.0 - Mostly clear 6 - - - -
01/06:30am 18.9 WNW 6 8 1006.8 - 0.0 Fog Mostly clear 5 - - - -
01/06:00am 18.4 CALM 0 0 1006.4 F 0.0 Fine Clear 30 - - - -
01/05:30am 18.7 CALM 0 0 1006.0 - 0.0 - - 10 - - - -
01/05:00am 19.3 N 3 5 1006.0 - 0.0 - - 10 - - - -
01/04:30am 18.7 NW 3 4 1006.0 - 0.0 - - 10 - - - -
01/04:00am 19.5 NNE 1 4 1006.2 - 0.0 - - 10 - - - -
01/03:30am 20.4 NE 5 6 1006.3 - 0.0 - - 10 - - - -
01/03:00am 20.8 NE 4 5 1006.6 - 0.0 - - 10 - - - -
01/02:30am 21.0 NE 4 5 1007.0 - 0.0 - - 10 - - - -
01/02:00am 21.4 NNE 5 7 1007.2 - 0.0 - - 10 - - - -
01/01:30am 21.4 NE 5 7 1007.5 - 0.0 - - 10 - - - -
01/01:00am 22.0 NNE 5 7 1008.0 - 0.0 - - 10 - - - -
01/12:30am 22.1 NNE 6 8 1008.3 - 0.0 - - 10 - - - -
01/12:00am 22.3 NNE 6 7 1008.5 - 0.0 - - 10 - - - -
 
Date/Time
EDT
Temp

°C
Wind Pressure Rain
since 9am
mm
Weather Cloud Vis
km
Sea
Height
m
Swell
Dir
 
Speed
knots
Gust
knots
hPa Trend Height
m
Period
s
Dir
28/11:30pm 22.8 NE 8 10 1008.7 - 0.0 - - 10 - - - -
28/11:00pm 23.1 NE 8 11 1008.9 - 0.0 - - 10 - - - -
28/10:30pm 23.0 NE 8 10 1009.0 - 0.0 - - 10 - - - -
28/10:00pm 23.0 NE 7 9 1009.2 - 0.0 - - 10 - - - -
28/09:30pm 23.4 NE 7 9 1009.2 - 0.0 - - 10 - - - -
28/09:00pm 23.4 NE 7 9 1008.9 - 0.0 - - 10 - - - -
28/08:30pm 23.7 ENE 7 10 1008.7 - 0.0 - - 10 - - - -
28/08:00pm 24.0 ENE 8 13 1008.6 - 0.0 - - 10 - - - -
28/07:30pm 24.8 ENE 9 15 1008.2 - 0.0 - - 10 - - - -
28/07:00pm 25.9 ENE 9 13 1008.0 - 0.0 - - 10 - - - -
28/06:30pm 26.7 ENE 9 14 1007.8 - 0.0 - - 10 - - - -
28/06:00pm 27.4 ENE 10 13 1007.8 - 0.0 - - 10 - - - -
28/05:30pm 28.0 E 10 14 1007.9 - 0.0 - - 10 - - - -
28/05:00pm 27.9 E 11 16 1007.9 - 0.0 - - 10 - - - -
28/04:30pm 27.1 E 11 13 1008.1 - 0.0 - - 10 - - - -
28/04:00pm 26.6 ESE 11 14 1008.3 - 0.0 - - 10 - - - -
28/03:30pm 28.6 SE 11 14 1008.4 - 0.0 - - 10 - - - -
28/03:00pm 26.8 SE 12 15 1008.8 - 0.0 - - 10 - - - -
28/02:30pm 27.8 ESE 10 15 1008.9 - 0.0 - - 10 - - - -
28/02:00pm 28.0 SE 12 15 1009.4 - 0.0 - - 10 - - - -
28/01:30pm 27.9 SE 10 12 1009.6 - 0.0 - - 10 - - - -
28/01:00pm 26.8 N 6 9 1009.9 - 0.0 - - 10 - - - -
28/12:30pm 27.3 NE 6 10 1010.1 - 0.0 - - 10 - - - -
28/12:00pm 26.9 NE 8 12 1010.4 - 0.0 - - 10 - - - -
28/11:30am 25.1 N 5 7 1011.0 - 0.0 - - 10 - - - -
28/11:00am 23.3 N 4 7 1011.3 - 0.0 - - 10 - - - -
28/10:30am 22.8 WNW 5 7 1011.4 - 0.0 - - 10 - - - -
28/10:00am 21.9 WNW 6 8 1011.4 - 0.0 - Partly cloudy 10 - - - -
28/09:52am 21.3 NNW 6 7 1011.4 - 0.0 - Partly cloudy 10 - - - -
28/09:30am 20.9 NNW 5 7 1011.4 - 0.0 - Partly cloudy 10 - - - -
28/09:04am 20.1 N 6 7 1011.3 - 0.0 - Cloudy 10 - - - -
28/09:00am 19.8 N 6 7 1011.3 - 0.2 - Cloudy 10 - - - -
28/08:30am 18.9 NW 7 9 1011.3 - 0.2 - Cloudy 1 - - - -
28/08:28am 18.9 NW 6 8 1011.3 - 0.2 - Cloudy 0.9 - - - -
28/08:00am 18.2 CALM 0 0 1011.1 - 0.2 - Cloudy 0.7 - - - -
28/07:58am 18.2 CALM 0 0 1011.1 - 0.2 - Cloudy 1 - - - -
28/07:52am 18.0 CALM 0 0 1011.1 - 0.2 - Cloudy 1 - - - -
28/07:31am 17.5 CALM 0 0 1010.7 - 0.2 - Cloudy 0.9 - - - -
28/07:30am 17.5 CALM 0 0 1010.7 - 0.2 - Cloudy 1 - - - -
28/07:11am 17.3 CALM 0 0 1010.7 - 0.2 - Cloudy 1 - - - -
28/07:05am 16.9 CALM 0 0 1010.6 - 0.2 - Cloudy 1 - - - -
28/07:00am 16.7 CALM 0 0 1010.5 - 0.2 - Cloudy 3 - - - -
28/06:56am 16.5 CALM 0 0 1010.5 - 0.2 - Cloudy 5 - - - -
28/06:30am 15.3 CALM 0 0 1010.1 - 0.2 - Partly cloudy 0.5 - - - -
28/06:17am 15.2 CALM 0 0 1010.0 - 0.2 - Partly cloudy 1 - - - -
28/06:15am 15.0 CALM 0 0 1010.0 - 0.2 - Partly cloudy 3 - - - -
28/06:00am 15.5 CALM 0 0 1010.0 - 0.2 - Partly cloudy 2 - - - -
28/05:47am 15.6 CALM 0 0 1009.9 - 0.2 - Partly cloudy 0.9 - - - -
28/05:30am 15.7 CALM 0 0 1009.8 - 0.2 - Partly cloudy 0.4 - - - -
28/05:27am 15.3 CALM 0 0 1009.8 - 0.2 - Partly cloudy 1 - - - -
28/05:23am 15.3 CALM 0 0 1009.8 - 0.2 - Partly cloudy 6 - - - -
28/05:00am 15.4 CALM 0 0 1009.4 - 0.2 - Partly cloudy 10 - - - -
28/04:30am 15.6 CALM 0 0 1009.1 - 0.2 - - 10 - - - -
28/04:00am 15.9 CALM 0 0 1009.3 - 0.2 - - 10 - - - -
28/03:30am 16.5 CALM 0 0 1009.3 - 0.2 - - 10 - - - -
28/03:00am 16.6 CALM 0 0 1009.4 - 0.2 - - 10 - - - -
28/02:30am 16.7 CALM 0 0 1009.5 - 0.2 - - 10 - - - -
28/02:00am 17.1 CALM 0 0 1009.8 - 0.2 - - 10 - - - -
28/01:30am 17.3 CALM 0 0 1010.2 - 0.2 - - 10 - - - -
28/01:00am 17.6 CALM 0 0 1010.5 - 0.2 - - 10 - - - -
28/12:30am 17.9 CALM 0 0 1010.8 - 0.2 - - 10 - - - -
28/12:00am 18.4 CALM 0 0 1011.0 - 0.2 - - 10 - - - -

Other Formats:

Comma delimited format used in spreadsheet applications
http://www.bom.gov.au/fwo/IDN60701/IDN60701.94776.axf

JavaScript Object Notation format (JSON) in row-major order
http://www.bom.gov.au/fwo/IDN60701/IDN60701.94776.json